Flight Track Log - Related Links

Times and Time Zones

All times are in EDT time to prevent confusion due to time zone crossing. See the N35246 flight status page for this flight to view local times or setup timezone preferences in your user account.

Time Position Orientation Groundspeed Altitude Reporting Facility
EDT Latitude Longitude Course Direction KTS MPH feet Rate Location/Type
Fri 10:15:07 PM 27.4000 -82.5667 360° North 79 91 300  Level Tampa TRACON
Fri 10:16:01 PM 27.4167 -82.5667 333° Northwest 84 97 700 389 Climbing Tampa TRACON
Fri 10:16:55 PM 27.4333 -82.5667 360° North 84 97 1,000 400 Climbing Tampa TRACON
Fri 10:18:01 PM 27.4667 -82.5667 360° North 79 91 1,500 381 Climbing Tampa TRACON
Fri 10:19:01 PM 27.4833 -82.5833 318° Northwest 86 99 1,800 350 Climbing Tampa TRACON
Fri 10:20:01 PM 27.5000 -82.5667 42° Northeast 79 91 2,200 450 Climbing Tampa TRACON
Fri 10:21:01 PM 27.5167 -82.5500 42° Northeast 72 83 2,700 400 Climbing Tampa TRACON
Fri 10:22:01 PM 27.5333 -82.5333 42° Northeast 69 79 3,000 300 Climbing Tampa TRACON
Fri 10:23:01 PM 27.5333 -82.5167 90° East 65 75 3,300 316 Climbing Tampa TRACON
Fri 10:23:55 PM 27.5500 -82.5000 42° Northeast 69 79 3,600 316 Climbing Tampa TRACON
Fri 10:24:55 PM 27.5667 -82.4833 42° Northeast 74 85 3,900 350 Climbing Tampa TRACON
Fri 10:25:55 PM 27.5833 -82.4667 42° Northeast 71 82 4,300 333 Climbing Tampa TRACON
Fri 10:27:01 PM 27.6000 -82.4500 42° Northeast 74 85 4,600 286 Climbing Tampa TRACON
Fri 10:28:01 PM 27.6167 -82.4333 42° Northeast 77 89 4,900 250 Climbing Tampa TRACON
Fri 10:29:01 PM 27.6167 -82.4167 90° East 75 86 5,100 100 Climbing Tampa TRACON
Fri 10:30:01 PM 27.6500 -82.4000 24° Northeast 96 110 5,100  Level Tampa TRACON
Fri 10:30:55 PM 27.6667 -82.3667 61° Northeast 112 129 5,100  Level Tampa TRACON
Fri 10:31:55 PM 27.6833 -82.3500 42° Northeast 108 124 5,100 -48 Level Tampa TRACON
Fri 10:33:01 PM 27.7000 -82.3167 61° Northeast 105 121 5,000 -48 Descending Tampa TRACON
Fri 10:34:01 PM 27.7167 -82.3000 42° Northeast 104 120 5,000  Level Tampa TRACON
Fri 10:34:56 PM 27.7500 -82.2833 24° Northeast 106 122 5,000  Level Tampa TRACON
Fri 10:35:56 PM 27.7667 -82.2500 61° Northeast 107 123 5,000 50 Level Tampa TRACON
Fri 10:36:56 PM 27.7833 -82.2333 41° Northeast 106 122 5,100  Climbing Tampa TRACON
Fri 10:37:56 PM 27.8167 -82.2167 24° Northeast 106 122 5,000 -50 Descending Tampa TRACON
Fri 10:38:56 PM 27.8333 -82.1833 61° Northeast 110 127 5,000  Level Tampa TRACON
Fri 10:40:02 PM 27.8500 -82.1667 41° Northeast 108 124 5,000 48 Level Tampa TRACON
Fri 10:41:02 PM 27.8833 -82.1333 41° Northeast 107 123 5,100  Climbing Tampa TRACON
Fri 10:41:56 PM 27.9000 -82.1167 41° Northeast 107 123 5,000  Descending Tampa TRACON
Fri 10:42:56 PM 27.9167 -82.0833 60° Northeast 110 127 5,100 39 Climbing Tampa TRACON
Fri 10:44:31 PM 27.9500 -82.0500 41° Northeast 111 128 5,100  Level Orlando TRACON
Fri 10:45:32 PM 27.9833 -82.0333 24° Northeast 112 129 5,100  Level Orlando TRACON
Fri 10:46:26 PM 28.0000 -82.0000 60° Northeast 108 124 5,100 -49 Level Orlando TRACON
Fri 10:47:35 PM 28.0100 -81.9725 68° East 108 124 5,000 -47 Descending Miami Center
Fri 10:48:35 PM 28.0186 -81.9439 71° East 102 117 5,000  Level Miami Center
Fri 10:49:37 PM 28.0456 -81.9247 32° Northeast 111 128 5,000  Level Miami Center
Fri 10:50:38 PM 28.0778 -81.9139 17° North 119 137 5,000  Level Miami Center
Fri 10:51:39 PM 28.1039 -81.8967 30° Northeast 114 131 5,000  Level Miami Center
Fri 10:52:39 PM 28.1297 -81.8767 34° Northeast 111 128 5,000 -59 Level Miami Center
Fri 10:53:20 PM 28.1500 -81.8667 23° Northeast 113 130 4,900 -297 Descending Orlando TRACON
Fri 10:54:20 PM 28.1833 -81.8333 41° Northeast 124 143 4,500 -524 Descending Orlando TRACON
Fri 10:55:26 PM 28.2000 -81.8167 41° Northeast 130 150 3,800 -619 Descending Orlando TRACON
Fri 10:56:26 PM 28.2333 -81.7833 41° Northeast 124 143 3,200 -400 Descending Orlando TRACON
Fri 10:57:26 PM 28.2667 -81.7667 24° Northeast 117 135 3,000 -50 Descending Orlando TRACON
Fri 10:58:26 PM 28.2833 -81.7500 41° Northeast 113 130 3,100 50 Climbing Orlando TRACON
Fri 10:59:26 PM 28.3167 -81.7167 41° Northeast 108 124 3,100  Level Orlando TRACON
Fri 11:00:26 PM 28.3333 -81.7000 41° Northeast 116 133 3,100  Level Orlando TRACON
Fri 11:01:26 PM 28.3667 -81.6833 24° Northeast 116 133 3,100  Level Orlando TRACON
Fri 11:02:26 PM 28.3833 -81.6667 41° Northeast 112 129 3,100  Level Orlando TRACON
Fri 11:03:20 PM 28.4167 -81.6500 24° Northeast 113 130 3,100 -200 Level Orlando TRACON
Fri 11:04:26 PM 28.4333 -81.6167 60° Northeast 121 139 2,700 -455 Descending Orlando TRACON
Fri 11:05:32 PM 28.4500 -81.5833 60° Northeast 113 130 2,100 -350 Descending Orlando TRACON
Fri 11:06:26 PM 28.4667 -81.5500 60° Northeast 103 119 2,000  Descending Orlando TRACON
Fri 11:07:32 PM 28.4667 -81.5167 90° East 88 101 2,100  Climbing Orlando TRACON
Fri 11:08:26 PM 28.4833 -81.5000 41° Northeast 89 102 2,000 -53 Descending Orlando TRACON
Fri 11:09:26 PM 28.4833 -81.4667 90° East 93 107 2,000 -45 Level Orlando TRACON
Fri 11:10:38 PM 28.5000 -81.4500 41° Northeast 93 107 1,900 -200 Descending Orlando TRACON
Fri 11:11:26 PM 28.5167 -81.4167 60° Northeast 91 105 1,600 -389 Descending Orlando TRACON
Fri 11:12:26 PM 28.5167 -81.4000 90° East 81 93 1,200 -400 Descending Orlando TRACON
Fri 11:13:26 PM 28.5333 -81.3667 60° Northeast 76 87 800 -400 Descending Orlando TRACON
Fri 11:14:26 PM 28.5333 -81.3500 90° East 78 90 400 -133 Descending Orlando TRACON
Fri 11:16:26 PM 28.5500 -81.3167 60° Northeast 75 86 400 172 Level Orlando TRACON
Fri 11:17:20 PM 28.5667 -81.3000 41° Northeast 71 82 900 440 Climbing Orlando TRACON
Fri 11:18:15 PM 28.5833 -81.2833 41° Northeast 75 86 1,200 365 Climbing Orlando TRACON
Fri 11:19:15 PM 28.5833 -81.2667 90° East 64 74 1,600 381 Climbing Orlando TRACON
Fri 11:20:21 PM 28.5667 -81.2500 139° Southeast 62 71 2,000 381 Climbing Orlando TRACON
Fri 11:21:21 PM 28.5667 -81.2333 90° East 67 77 2,400 400 Climbing Orlando TRACON
Fri 11:22:21 PM 28.5500 -81.2167 139° Southeast 68 78 2,800 300 Climbing Orlando TRACON
Fri 11:23:21 PM 28.5333 -81.2000 139° Southeast 69 79 3,000 150 Climbing Orlando TRACON
Fri 11:24:21 PM 28.5167 -81.1833 139° Southeast 88 101 3,100  Climbing Orlando TRACON
Fri 11:25:21 PM 28.5000 -81.1667 139° Southeast 93 107 3,000 -50 Descending Orlando TRACON
Fri 11:26:21 PM 28.4833 -81.1500 139° Southeast 85 98 3,000 50 Level Orlando TRACON
Fri 11:27:21 PM 28.4667 -81.1333 139° Southeast 84 97 3,100 53 Climbing Orlando TRACON
Fri 11:28:15 PM 28.4500 -81.1167 139° Southeast 80 92 3,100  Level Orlando TRACON
Fri 11:29:15 PM 28.4333 -81.1000 139° Southeast 81 93 3,100  Level Orlando TRACON
Fri 11:30:15 PM 28.4167 -81.0833 139° Southeast 86 99 3,100  Level Orlando TRACON
Fri 11:31:15 PM 28.4000 -81.0667 139° Southeast 82 94 3,100  Level Orlando TRACON
Fri 11:32:15 PM 28.3833 -81.0500 139° Southeast 86 99 3,100 -50 Level Orlando TRACON
Fri 11:33:15 PM 28.3667 -81.0333 139° Southeast 82 94 3,000  Descending Orlando TRACON
Fri 11:34:15 PM 28.3500 -81.0167 139° Southeast 83 96 3,100  Climbing Orlando TRACON
Fri 11:35:15 PM 28.3167 -81.0000 156° South 80 92 3,000 -50 Descending Orlando TRACON
Fri 11:36:15 PM 28.3000 -80.9833 139° Southeast 79 91 3,000 50 Level Orlando TRACON
Fri 11:37:15 PM 28.2833 -80.9667 139° Southeast 78 90 3,100  Climbing Orlando TRACON
Fri 11:38:15 PM 28.2667 -80.9500 139° Southeast 80 92 3,000 -50 Descending Orlando TRACON
Fri 11:39:15 PM 28.2500 -80.9500 180° South 81 93 3,000  Level Orlando TRACON
Fri 11:40:15 PM 28.2333 -80.9333 139° Southeast 79 91 3,000 50 Level Orlando TRACON
Fri 11:41:15 PM 28.2167 -80.9167 139° Southeast 76 87 3,100  Climbing Orlando TRACON
Fri 11:42:15 PM 28.2000 -80.9000 139° Southeast 80 92 3,000 -100 Descending Orlando TRACON
Fri 11:43:15 PM 28.1833 -80.8833 139° Southeast 85 98 2,900 -300 Descending Orlando TRACON
Fri 11:44:15 PM 28.1500 -80.8833 180° South 95 109 2,400 -500 Descending Orlando TRACON
Fri 11:45:15 PM 28.1333 -80.8667 139° Southeast 97 112 1,900 -350 Descending Orlando TRACON
Fri 11:46:15 PM 28.1167 -80.8500 139° Southeast 88 101 1,700 -100 Descending Orlando TRACON
Fri 11:47:15 PM 28.1000 -80.8167 120° Southeast 81 93 1,700  Level Orlando TRACON
Fri 11:48:15 PM 28.1000 -80.8000 90° East 87 100 1,700  Level Orlando TRACON
Fri 11:49:15 PM 28.1000 -80.7667 90° East 81 93 1,700 -150 Level Orlando TRACON
Fri 11:50:15 PM 28.1000 -80.7500 90° East 83 96 1,400 -400 Descending Orlando TRACON
Fri 11:51:15 PM 28.1000 -80.7167 90° East 77 89 900 -400 Descending Orlando TRACON
Fri 11:52:15 PM 28.1000 -80.7000 90° East 74 85 600 -150 Descending Orlando TRACON
Fri 11:53:15 PM 28.1000 -80.6667 90° East 77 89 600 250 Level Orlando TRACON
Fri 11:54:15 PM 28.1000 -80.6500 90° East 74 85 1,100 400 Climbing Orlando TRACON
Fri 11:55:15 PM 28.1000 -80.6167 90° East 79 91 1,400 300 Climbing Orlando TRACON
Fri 11:56:15 PM 28.1000 -80.6000 90° East 85 98 1,700 300 Climbing Orlando TRACON
Fri 11:56:55 PM 28.1056 -80.5831 70° East 80 92 1,900 297 Climbing Miami Center
Fri 11:57:56 PM 28.0856 -80.5803 173° South 77 89 2,200 397 Climbing Miami Center
Fri 11:58:56 PM 28.0633 -80.5839 188° South 77 89 2,700 443 Climbing Miami Center
Fri 11:59:58 PM 28.0461 -80.5853 184° South 70 81 3,100 397 Climbing Miami Center
Sat 12:00:57 AM 28.0281 -80.5892 191° South 66 76 3,500 344 Climbing Miami Center
Sat 12:02:00 AM 28.0117 -80.5903 183° South 65 75 3,800 295 Climbing Miami Center
Sat 12:02:59 AM 27.9928 -80.5936 189° South 63 72 4,100 151 Climbing Miami Center
Sat 12:03:59 AM 27.9683 -80.5983 190° South 83 96 4,100  Level Miami Center
Sat 12:05:01 AM 27.9444 -80.6022 188° South 90 104 4,100  Level Miami Center
Sat 12:06:01 AM 27.9172 -80.6058 187° South 93 107 4,100 149 Level Miami Center
Sat 12:07:02 AM 27.8950 -80.6081 185° South 87 100 4,400 344 Climbing Miami Center
Sat 12:08:03 AM 27.8786 -80.5997 156° South 73 84 4,800 344 Climbing Miami Center
Sat 12:09:04 AM 27.8589 -80.5961 171° South 70 81 5,100 300 Climbing Miami Center
Sat 12:10:03 AM 27.8386 -80.5933 173° South 71 82 5,400 250 Climbing Miami Center
Sat 12:11:04 AM 27.8197 -80.5922 177° South 71 82 5,600 244 Climbing Miami Center
Sat 12:12:06 AM 27.8003 -80.5903 175° South 70 81 5,900 248 Climbing Miami Center
Sat 12:13:05 AM 27.7808 -80.5875 173° South 70 81 6,100 101 Climbing Miami Center
Sat 12:14:05 AM 27.7561 -80.5858 177° South 85 98 6,100  Level Miami Center
Sat 12:15:06 AM 27.7308 -80.5825 173° South 89 102 6,100  Level Miami Center
Sat 12:16:05 AM 27.7056 -80.5786 172° South 89 102 6,100  Level Miami Center
Sat 12:17:08 AM 27.6836 -80.5717 164° South 88 101 6,100  Level Miami Center
Sat 12:18:08 AM 27.6586 -80.5656 168° South 88 101 6,100  Level Miami Center
Sat 12:19:09 AM 27.6361 -80.5578 163° South 88 101 6,100  Level Miami Center
Sat 12:20:09 AM 27.6119 -80.5494 163° South 88 101 6,100  Level Miami Center
Sat 12:21:10 AM 27.5869 -80.5408 163° South 88 101 6,100  Level Miami Center
Sat 12:22:11 AM 27.5628 -80.5353 168° South 89 102 6,100 -50 Level Miami Center
Sat 12:23:11 AM 27.5375 -80.5278 165° South 89 102 6,000 -50 Descending Miami Center
Sat 12:24:12 AM 27.5139 -80.5233 171° South 89 102 6,000 50 Level Miami Center
Sat 12:25:12 AM 27.4894 -80.5133 160° South 89 102 6,100 50 Climbing Miami Center
Sat 12:26:13 AM 27.4669 -80.5053 162° South 89 102 6,100 -50 Level Miami Center
Sat 12:27:13 AM 27.4417 -80.4983 166° South 89 102 6,000  Descending Miami Center
Sat 12:28:13 AM 27.4197 -80.4886 159° South 89 102 6,100 50 Climbing Miami Center
Sat 12:29:14 AM 27.3958 -80.4794 161° South 89 102 6,100  Level Miami Center
Sat 12:30:14 AM 27.3728 -80.4739 168° South 88 101 6,100  Level Miami Center
Sat 12:31:15 AM 27.3472 -80.4669 166° South 89 102 6,100 -50 Level Miami Center
Sat 12:32:15 AM 27.3250 -80.4608 166° South 88 101 6,000 -51 Descending Miami Center
Sat 12:33:13 AM 27.3017 -80.4511 160° South 87 100 6,000  Level Miami Center
Sat 12:34:13 AM 27.2789 -80.4447 166° South 87 100 6,000  Level Miami Center
Sat 12:35:16 AM 27.2547 -80.4383 167° South 85 98 6,000 -197 Level Miami Center
Sat 12:36:15 AM 27.2286 -80.4333 170° South 97 112 5,600 -450 Descending Miami Center
Sat 12:37:16 AM 27.1992 -80.4253 166° South 101 116 5,100 -492 Descending Miami Center
Sat 12:38:17 AM 27.1736 -80.4142 159° South 102 117 4,600 -504 Descending Miami Center
Sat 12:39:15 AM 27.1456 -80.4031 161° South 102 117 4,100 -298 Descending Miami Center
Sat 12:40:18 AM 27.1222 -80.3958 165° South 96 110 4,000 -50 Descending Miami Center
Sat 12:41:16 AM 27.0989 -80.3894 166° South 86 99 4,000  Level Miami Center
Sat 12:42:19 AM 27.0789 -80.3817 161° South 83 96 4,000  Level Miami Center
Sat 12:43:18 AM 27.0556 -80.3744 165° South 82 94 4,000  Level Miami Center
Sat 12:44:17 AM 27.0347 -80.3678 164° South 82 94 4,000  Level Miami Center
Sat 12:45:17 AM 27.0125 -80.3594 162° South 82 94 4,000 -50 Level Miami Center
Sat 12:46:18 AM 26.9922 -80.3506 159° South 81 93 3,900 -246 Descending Miami Center
Sat 12:47:19 AM 26.9650 -80.3436 167° South 91 105 3,500 -400 Descending Miami Center
Sat 12:48:18 AM 26.9386 -80.3358 165° South 97 112 3,100 -246 Descending Miami Center
Sat 12:49:21 AM 26.9119 -80.3283 166° South 96 110 3,000 -49 Descending Miami Center
Sat 12:50:21 AM 26.8908 -80.3183 157° South 88 101 3,000  Level Miami Center
Sat 12:51:22 AM 26.8664 -80.3108 165° South 87 100 3,000 50 Level Miami Center
Sat 12:52:20 AM 26.8439 -80.3067 171° South 87 100 3,100  Climbing Miami Center
Sat 12:53:21 AM 26.8197 -80.2989 164° South 86 99 3,000 -50 Descending Miami Center
Sat 12:54:21 AM 26.7978 -80.2889 158° South 87 100 3,000  Level Miami Center
Sat 12:55:21 AM 26.7728 -80.2794 161° South 91 105 3,000  Level Miami Center
Sat 12:56:21 AM 26.7489 -80.2725 165° South 86 99 3,000  Level Miami Center
Sat 12:57:23 AM 26.7247 -80.2647 164° South 88 101 3,000  Level Miami Center
Sat 12:58:23 AM 26.7017 -80.2600 170° South 87 100 3,000  Level Miami Center
Sat 12:59:24 AM 26.6772 -80.2542 168° South 88 101 3,000  Level Miami Center
Sat 01:00:22 AM 26.6525 -80.2444 161° South 91 105 3,000 51 Level Miami Center
Sat 01:01:22 AM 26.6283 -80.2372 165° South 88 101 3,100 61 Climbing Miami Center
Sat 01:02:01 AM 26.6122 -80.2325 165° South 89 102 3,100 -95 Level Miami Center
Sat 01:02:25 AM 26.6039 -80.2303 167° South 88 101 3,000  Descending Miami Center
Sat 01:03:07 AM 26.5856 -80.2236 162° South 90 104 3,100 100 Climbing Miami Center
Sat 01:03:25 AM 26.5814 -80.2217 157° South 87 100 3,100  Level Miami Center
Sat 01:04:19 AM 26.5589 -80.2144 164° South 96 110 3,100  Level Miami Center
Sat 01:05:14 AM 26.5356 -80.2175 187° South 95 109 3,100  Level Miami Center
Sat 01:05:26 AM 26.5314 -80.2200 208° Southwest 94 108 3,100  Level Miami Center
Sat 01:06:08 AM 26.5103 -80.2225 186° South 93 107 3,100  Level Miami Center
Sat 01:06:23 AM 26.5056 -80.2244 200° South 94 108 3,100 -111 Level Miami Center
Sat 01:07:02 AM 26.4889 -80.2256 183° South 91 105 3,000 -98 Descending Miami Center
Sat 01:07:24 AM 26.4800 -80.2281 194° South 91 105 3,000  Level Miami Center
Sat 01:08:03 AM 26.4633 -80.2350 200° South 95 109 3,000  Level Miami Center
Sat 01:08:25 AM 26.4556 -80.2397 209° Southwest 93 107 3,000  Level Miami Center
Sat 01:09:03 AM 26.4392 -80.2519 214° Southwest 104 120 3,000  Level Miami Center
Sat 01:09:26 AM 26.4325 -80.2569 214° Southwest 102 117 3,000 111 Level Miami Center
Sat 01:09:57 AM 26.4181 -80.2550 173° South 80 92 3,100 -102 Climbing Miami Center
Sat 01:10:25 AM 26.4100 -80.2461 135° Southeast 78 90 2,900 -286 Descending Miami Center
Sat 01:11:00 AM 26.3981 -80.2394 153° Southeast 85 98 2,800 -286 Descending Miami Center
Sat 01:11:28 AM 26.3908 -80.2328 140° Southeast 81 93 2,600 -346 Descending Miami Center
Sat 01:11:52 AM 26.3822 -80.2264 146° Southeast 71 82 2,500 -200 Descending Miami Center
Sat 01:12:28 AM 26.3750 -80.2183 135° Southeast 77 89 2,400 -222 Descending Miami Center
Sat 01:12:46 AM 26.3703 -80.2139 140° Southeast 72 83 2,300 -207 Descending Miami Center
Sat 01:13:26 AM 26.3622 -80.2075 145° Southeast 76 87 2,200 -150 Descending Miami Center

Login

Don't have an account? Register now (free) for customized features, flight alerts, and more!